createdAt,value
2023-03-23T15:57:55.635Z,97164.00
2023-03-23T16:00:24.626Z,97155.91
2023-03-23T16:03:01.714Z,97162.97
2023-03-23T16:05:28.734Z,97169.56
2023-03-23T16:07:55.733Z,97162.25
2023-03-23T16:10:24.331Z,97160.06
2023-03-23T16:12:51.021Z,97155.50
2023-03-23T16:15:17.974Z,97173.06
2023-03-23T16:17:46.612Z,97161.03
2023-03-23T16:20:21.883Z,97162.03
2023-03-23T16:22:49.344Z,97159.53
2023-03-23T16:25:16.441Z,97157.56
2023-03-23T16:27:43.851Z,97157.22
2023-03-23T16:30:15.978Z,97147.13
2023-03-23T16:35:09.332Z,97153.72
2023-03-23T16:37:36.562Z,97148.53
2023-03-23T16:40:04.844Z,97146.56
2023-03-23T16:42:31.478Z,97139.44
2023-03-23T16:44:59.657Z,97132.88
2023-03-23T16:47:26.146Z,97134.44
2023-03-23T16:49:53.928Z,97131.66
2023-03-23T16:52:20.961Z,97125.94
2023-03-23T16:54:47.453Z,97121.84
2023-03-23T16:57:13.963Z,97124.72
2023-03-23T16:59:40.364Z,97124.53
2023-03-23T17:02:07.237Z,97128.53
2023-03-23T17:04:34.173Z,97131.53
2023-03-23T17:07:00.692Z,97129.13
2023-03-23T17:09:31.046Z,97124.16
2023-03-23T17:12:00.278Z,97132.47
2023-03-23T17:14:29.058Z,97135.78
2023-03-23T17:16:58.887Z,97123.94
2023-03-23T17:19:26.086Z,97136.56
2023-03-23T17:21:52.968Z,97132.03
2023-03-23T17:24:19.919Z,97134.44
2023-03-23T17:26:46.436Z,97126.88
2023-03-23T17:29:13.059Z,97135.66
2023-03-23T17:31:41.305Z,97138.13
2023-03-23T17:34:07.805Z,97148.81
2023-03-23T17:36:34.336Z,97146.06
2023-03-23T17:39:00.918Z,97146.88
2023-03-23T17:41:31.799Z,97143.88
2023-03-23T17:44:01.540Z,97125.28
2023-03-23T17:46:31.970Z,97134.50
2023-03-23T17:49:08.776Z,97123.66
2023-03-23T17:51:36.056Z,97127.44
2023-03-23T17:54:02.513Z,97127.84
2023-03-23T17:56:31.894Z,97124.63
2023-03-23T17:59:01.327Z,97136.16
2023-03-23T18:01:30.802Z,97118.66
2023-03-23T18:04:01.873Z,97130.09
2023-03-23T18:06:32.731Z,97134.91
2023-03-23T18:08:59.869Z,97125.16
2023-03-23T18:11:30.786Z,97130.41
2023-03-23T18:14:00.477Z,97134.25
2023-03-23T18:16:30.221Z,97125.75
2023-03-23T18:18:59.238Z,97129.50
2023-03-23T18:21:31.804Z,97124.50
2023-03-23T18:24:01.220Z,97114.59
2023-03-23T18:26:33.839Z,97139.28
2023-03-23T18:29:00.365Z,97134.25
2023-03-23T18:31:29.118Z,97132.06
2023-03-23T18:33:59.363Z,97137.41
2023-03-23T18:36:31.661Z,97138.69
2023-03-23T18:39:01.577Z,97125.53
2023-03-23T18:41:32.058Z,97129.13
2023-03-23T18:44:01.894Z,97127.59
2023-03-23T18:46:31.694Z,97115.84
2023-03-23T18:49:01.357Z,97114.69
2023-03-23T18:51:30.972Z,97122.22
2023-03-23T18:54:05.342Z,97122.91
2023-03-23T18:56:34.422Z,97133.31
2023-03-23T18:59:01.988Z,97112.72
2023-03-23T19:01:31.642Z,97119.75
2023-03-23T19:04:02.502Z,97086.34
2023-03-23T19:06:34.989Z,97140.03
2023-03-23T19:09:02.080Z,97140.88
2023-03-23T19:11:30.048Z,97123.88
2023-03-23T19:14:03.988Z,97123.47
2023-03-23T19:16:36.102Z,97125.22
2023-03-23T19:19:06.918Z,97138.97
2023-03-23T19:21:34.138Z,97129.22
2023-03-23T19:24:01.937Z,97142.59
2023-03-23T19:26:36.925Z,97138.16
2023-03-23T19:29:26.217Z,97133.25
2023-03-23T19:31:55.417Z,97124.28
2023-03-23T19:34:22.451Z,97134.03
2023-03-23T19:36:55.196Z,97126.47
2023-03-23T19:39:26.165Z,97136.34
2023-03-23T19:41:52.806Z,97134.81
2023-03-23T19:44:19.286Z,97127.63
2023-03-23T19:46:46.038Z,97119.44
2023-03-23T19:49:12.804Z,97139.78
2023-03-23T19:51:39.776Z,97141.31
2023-03-23T19:54:07.899Z,97133.06
2023-03-23T19:56:35.068Z,97143.66
2023-03-23T19:59:05.238Z,97140.47
2023-03-23T20:01:31.925Z,97143.91
2023-03-23T20:04:00.287Z,97139.91
2023-03-23T20:06:29.327Z,97144.56
2023-03-23T20:08:56.944Z,97161.44
2023-03-23T20:11:26.187Z,97149.53
2023-03-23T20:13:52.701Z,97161.66
2023-03-23T20:16:19.252Z,97161.50
2023-03-23T20:18:47.374Z,97167.09
2023-03-23T20:21:19.661Z,97161.59
2023-03-23T20:23:47.503Z,97155.31
2023-03-23T20:26:19.617Z,97157.06
2023-03-23T20:28:47.635Z,97151.94
2023-03-23T20:31:24.186Z,97157.50
2023-03-23T20:34:00.885Z,97153.28
2023-03-23T20:36:46.971Z,97158.63
2023-03-23T20:39:21.766Z,97174.66
2023-03-23T20:41:50.425Z,97160.88
2023-03-23T20:44:18.770Z,97172.75
2023-03-23T20:46:46.519Z,97170.63
2023-03-23T20:49:13.943Z,97177.28
2023-03-23T20:51:40.506Z,97182.63
2023-03-23T20:54:07.188Z,97167.19
2023-03-23T20:56:34.768Z,97180.78
2023-03-23T20:59:05.746Z,97173.78
2023-03-23T21:01:33.358Z,97169.19
2023-03-23T21:04:03.391Z,97175.59
2023-03-23T21:06:32.919Z,97169.72
2023-03-23T21:09:01.485Z,97164.66
2023-03-23T21:11:28.175Z,97168.97
2023-03-23T21:13:54.657Z,97169.72
2023-03-23T21:16:23.709Z,97163.53
2023-03-23T21:18:50.694Z,97159.97
2023-03-23T21:21:18.382Z,97157.91
2023-03-23T21:23:47.516Z,97154.00
2023-03-23T21:26:20.010Z,97149.78
2023-03-23T21:28:47.425Z,97154.84
2023-03-23T21:31:15.128Z,97142.59
2023-03-23T21:33:41.881Z,97144.44
2023-03-23T21:36:08.806Z,97122.19
2023-03-23T21:38:35.529Z,97115.88
2023-03-23T21:41:08.592Z,97123.44
2023-03-23T21:43:35.078Z,97116.91
2023-03-23T21:46:08.866Z,97107.13
2023-03-23T21:48:38.567Z,97110.19
2023-03-23T21:51:10.179Z,97105.41
2023-03-23T21:53:39.938Z,97102.16
2023-03-23T21:56:09.727Z,97079.50
2023-03-23T21:58:38.284Z,97084.75
2023-03-23T22:01:05.511Z,97082.31
2023-03-23T22:03:36.821Z,97064.00
2023-03-23T22:06:13.102Z,97069.09
2023-03-23T22:08:41.837Z,97054.84
2023-03-23T22:11:18.318Z,97057.75
2023-03-23T22:13:45.740Z,97065.31
2023-03-23T22:16:14.579Z,97064.16
2023-03-23T22:18:43.377Z,97057.63
2023-03-23T22:21:10.672Z,97070.69
2023-03-23T22:23:38.171Z,97067.75
2023-03-23T22:26:06.263Z,97067.31
2023-03-23T22:28:37.165Z,97061.28
2023-03-23T22:31:17.161Z,97057.09
2023-03-23T22:33:44.756Z,97039.75
2023-03-23T22:36:12.266Z,97050.81
2023-03-23T22:38:45.003Z,97044.50
2023-03-23T22:41:20.248Z,97044.66
2023-03-23T22:43:47.451Z,97045.47
2023-03-23T22:46:14.997Z,97042.66
2023-03-23T22:48:42.201Z,97046.72
2023-03-23T22:51:09.979Z,97046.66
2023-03-23T22:53:36.593Z,97046.81
2023-03-23T22:56:04.936Z,97048.66
2023-03-23T22:58:31.492Z,97054.38
2023-03-23T23:01:01.219Z,97063.75
2023-03-23T23:03:28.536Z,97066.41
2023-03-23T23:05:56.600Z,97062.19
2023-03-23T23:08:25.041Z,97068.69
2023-03-23T23:10:56.276Z,97059.31
2023-03-23T23:13:23.328Z,97060.78
2023-03-23T23:15:52.872Z,97070.66
2023-03-23T23:18:20.478Z,97059.25
2023-03-23T23:20:53.121Z,97056.81
2023-03-23T23:23:20.393Z,97064.44
2023-03-23T23:25:47.431Z,97058.59
2023-03-23T23:28:13.961Z,97056.66
2023-03-23T23:30:40.939Z,97083.03
2023-03-23T23:33:07.663Z,97077.91
2023-03-23T23:35:37.041Z,97091.13
2023-03-23T23:38:09.339Z,97088.63
2023-03-23T23:40:39.696Z,97081.53
2023-03-23T23:43:06.315Z,97089.81
2023-03-23T23:45:33.141Z,97083.78
2023-03-23T23:48:00.013Z,97079.84
2023-03-23T23:50:27.307Z,97085.50
2023-03-23T23:52:54.114Z,97089.56
2023-03-23T23:55:21.126Z,97084.38
2023-03-23T23:57:48.805Z,97086.69
